RYR5AP EIDW-LGSR
Flight info
| Callsign | RYR5AP |
|---|---|
| Flight time | N/A |
| Altitude | 35000 |
| Route | ENDEQ1E ENDEQ Q36 ALAVA Z195 MALUD UL975 WAL M16 DOLAS DCT NAVPI DCT DODEN DCT NEGIX DCT DINKU/N0439F370 M867 XERUM DCT BAVAX DCT RADIZ DCT ABISO DCT NEMEK DCT ELTIB DCT GLOMY DCT INLOT DCT PINDO UL607 PIKOS DCT LUSES DCT ATV UL995 KEA UL607 NETIS M601 PEXAN |
| Aircraft | B738/M-SDE3FGILRWY/SB1 |
Departure
| Time | 2026-05-04 12:12 |
|---|---|
| Airport | Dublin Airport (EIDW) |
Arrival
| Time | N/A |
|---|---|
| Airport | Santorini International Airport (LGSR) |
| Time | Latitude | Longitude | Altitude | Speed | Heading |
|---|---|---|---|---|---|
| 2026-05-04 11:48 | 53.43011 | -6.25009 | 210 ft | 0 kts | 5° |
| 2026-05-04 11:59 | 53.43002 | -6.25010 | 210 ft | 4 kts | 6° |
| 2026-05-04 11:59 | 53.42975 | -6.25016 | 214 ft | 4 kts | 1° |
| 2026-05-04 12:00 | 53.42955 | -6.25011 | 210 ft | 4 kts | 292° |
| 2026-05-04 12:00 | 53.42954 | -6.25025 | 210 ft | 4 kts | 275° |
| 2026-05-04 12:00 | 53.42956 | -6.25070 | 219 ft | 4 kts | 275° |
| 2026-05-04 12:00 | 53.42958 | -6.25111 | 214 ft | 1 kts | 275° |
| 2026-05-04 12:01 | 53.42958 | -6.25112 | 214 ft | 0 kts | 275° |
| 2026-05-04 12:03 | 53.42958 | -6.25113 | 214 ft | 1 kts | 275° |
| 2026-05-04 12:03 | 53.42960 | -6.25147 | 210 ft | 6 kts | 275° |
| 2026-05-04 12:03 | 53.42958 | -6.25246 | 212 ft | 11 kts | 255° |
| 2026-05-04 12:03 | 53.42919 | -6.25364 | 215 ft | 12 kts | 228° |
| 2026-05-04 12:04 | 53.42889 | -6.25414 | 213 ft | 1 kts | 225° |
| 2026-05-04 12:04 | 53.42884 | -6.25422 | 215 ft | 1 kts | 225° |
| 2026-05-04 12:04 | 53.42882 | -6.25426 | 216 ft | 0 kts | 225° |
| 2026-05-04 12:04 | 53.42878 | -6.25433 | 210 ft | 2 kts | 225° |
| 2026-05-04 12:05 | 53.42853 | -6.25474 | 211 ft | 8 kts | 225° |
| 2026-05-04 12:05 | 53.42803 | -6.25562 | 214 ft | 14 kts | 226° |
| 2026-05-04 12:05 | 53.42727 | -6.25689 | 210 ft | 16 kts | 225° |
| 2026-05-04 12:05 | 53.42632 | -6.25725 | 214 ft | 15 kts | 158° |
| 2026-05-04 12:06 | 53.42534 | -6.25704 | 213 ft | 15 kts | 209° |
| 2026-05-04 12:06 | 53.42463 | -6.25819 | 210 ft | 14 kts | 225° |
| 2026-05-04 12:06 | 53.42396 | -6.25931 | 211 ft | 13 kts | 225° |
| 2026-05-04 12:06 | 53.42333 | -6.26040 | 210 ft | 13 kts | 226° |
| 2026-05-04 12:07 | 53.42280 | -6.26166 | 213 ft | 14 kts | 247° |
| 2026-05-04 12:07 | 53.42269 | -6.26348 | 210 ft | 17 kts | 275° |
| 2026-05-04 12:07 | 53.42281 | -6.26556 | 214 ft | 18 kts | 275° |
| 2026-05-04 12:07 | 53.42292 | -6.26761 | 210 ft | 17 kts | 275° |
| 2026-05-04 12:08 | 53.42303 | -6.26959 | 210 ft | 17 kts | 274° |
| 2026-05-04 12:08 | 53.42313 | -6.27149 | 216 ft | 16 kts | 275° |
| 2026-05-04 12:08 | 53.42323 | -6.27332 | 214 ft | 15 kts | 275° |
| 2026-05-04 12:08 | 53.42332 | -6.27509 | 210 ft | 15 kts | 275° |
| 2026-05-04 12:09 | 53.42343 | -6.27692 | 210 ft | 17 kts | 276° |
| 2026-05-04 12:09 | 53.42355 | -6.27912 | 216 ft | 21 kts | 275° |
| 2026-05-04 12:09 | 53.42370 | -6.28175 | 210 ft | 24 kts | 275° |
| 2026-05-04 12:09 | 53.42385 | -6.28458 | 210 ft | 24 kts | 275° |
| 2026-05-04 12:10 | 53.42401 | -6.28725 | 210 ft | 23 kts | 275° |
| 2026-05-04 12:10 | 53.42409 | -6.28969 | 218 ft | 19 kts | 260° |
| 2026-05-04 12:10 | 53.42315 | -6.29079 | 213 ft | 18 kts | 173° |
| 2026-05-04 12:10 | 53.42242 | -6.28994 | 208 ft | 8 kts | 94° |
| 2026-05-04 12:11 | 53.42239 | -6.28949 | 210 ft | 2 kts | 96° |
| 2026-05-04 12:11 | 53.42229 | -6.28760 | 212 ft | 45 kts | 95° |
| 2026-05-04 12:11 | 53.42178 | -6.27848 | 210 ft | 110 kts | 95° |
| 2026-05-04 12:11 | 53.42094 | -6.26273 | 329 ft | 149 kts | 93° |
| 2026-05-04 12:12 | 53.41990 | -6.24478 | 821 ft | 162 kts | 94° |
| 2026-05-04 12:12 | 53.41888 | -6.22586 | 1504 ft | 166 kts | 92° |
| 2026-05-04 12:12 | 53.41782 | -6.20569 | 2098 ft | 182 kts | 92° |
| 2026-05-04 12:12 | 53.41658 | -6.18302 | 2385 ft | 211 kts | 92° |
| 2026-05-04 12:13 | 53.41514 | -6.15727 | 2701 ft | 230 kts | 93° |
| 2026-05-04 12:14 | 53.41193 | -5.94520 | 7795 ft | 276 kts | 85° |
| 2026-05-04 12:15 | 53.41327 | -5.91289 | 8588 ft | 279 kts | 85° |
| 2026-05-04 12:15 | 53.41456 | -5.88016 | 9377 ft | 283 kts | 85° |
| 2026-05-04 12:15 | 53.41581 | -5.84696 | 10147 ft | 287 kts | 85° |
| 2026-05-04 12:15 | 53.41703 | -5.81341 | 10852 ft | 292 kts | 85° |
| 2026-05-04 12:16 | 53.41827 | -5.77821 | 11095 ft | 314 kts | 85° |
| 2026-05-04 12:16 | 53.41958 | -5.74037 | 11336 ft | 335 kts | 85° |
| 2026-05-04 12:16 | 53.42091 | -5.70090 | 11906 ft | 343 kts | 85° |
| 2026-05-04 12:16 | 53.42223 | -5.66080 | 12631 ft | 346 kts | 86° |
| 2026-05-04 12:17 | 53.42354 | -5.62033 | 13380 ft | 349 kts | 85° |
| 2026-05-04 12:17 | 53.42485 | -5.57948 | 14083 ft | 353 kts | 86° |
| 2026-05-04 12:17 | 53.42617 | -5.53815 | 14728 ft | 356 kts | 86° |
| 2026-05-04 12:17 | 53.42747 | -5.49671 | 15446 ft | 357 kts | 86° |
| 2026-05-04 12:18 | 53.42876 | -5.45500 | 16119 ft | 360 kts | 86° |
| 2026-05-04 12:18 | 53.43006 | -5.41273 | 16719 ft | 364 kts | 86° |
| 2026-05-04 12:18 | 53.43134 | -5.37046 | 17526 ft | 363 kts | 86° |
| 2026-05-04 12:18 | 53.43262 | -5.32798 | 18132 ft | 367 kts | 86° |
| 2026-05-04 12:19 | 53.43390 | -5.28488 | 18654 ft | 372 kts | 86° |
| 2026-05-04 12:19 | 53.43518 | -5.24152 | 19303 ft | 372 kts | 86° |
| 2026-05-04 12:19 | 53.43644 | -5.19805 | 19829 ft | 376 kts | 86° |
| 2026-05-04 12:19 | 53.43727 | -5.15403 | 20329 ft | 380 kts | 90° |
| 2026-05-04 12:20 | 53.43617 | -5.10966 | 20898 ft | 382 kts | 92° |
| 2026-05-04 12:20 | 53.43458 | -5.06515 | 21478 ft | 383 kts | 92° |
| 2026-05-04 12:20 | 53.43292 | -5.02043 | 22030 ft | 385 kts | 92° |
| 2026-05-04 12:20 | 53.43134 | -4.97547 | 22576 ft | 387 kts | 92° |
| 2026-05-04 12:21 | 53.42985 | -4.93027 | 23109 ft | 389 kts | 91° |
| 2026-05-04 12:21 | 53.42836 | -4.88477 | 23608 ft | 392 kts | 91° |
| 2026-05-04 12:21 | 53.42686 | -4.83909 | 24043 ft | 394 kts | 91° |
| 2026-05-04 12:21 | 53.42534 | -4.79312 | 24486 ft | 396 kts | 91° |
| 2026-05-04 12:22 | 53.42379 | -4.74699 | 24922 ft | 397 kts | 91° |